sensor_id;sensor_type;location;lat;lon;timestamp;P1;durP1;ratioP1;P2;durP2;ratioP2
9948;SDS011;5013;51.840;8.276;2023-07-13T00:02:08;5.27;;;2.30;;
9948;SDS011;5013;51.840;8.276;2023-07-13T00:04:34;4.23;;;2.37;;
9948;SDS011;5013;51.840;8.276;2023-07-13T00:07:00;3.53;;;2.10;;
9948;SDS011;5013;51.840;8.276;2023-07-13T00:09:25;5.90;;;2.33;;
9948;SDS011;5013;51.840;8.276;2023-07-13T00:11:54;7.73;;;2.00;;
9948;SDS011;5013;51.840;8.276;2023-07-13T00:14:22;4.93;;;2.43;;
9948;SDS011;5013;51.840;8.276;2023-07-13T00:16:48;7.03;;;2.57;;
9948;SDS011;5013;51.840;8.276;2023-07-13T00:19:14;7.10;;;2.60;;
9948;SDS011;5013;51.840;8.276;2023-07-13T00:21:40;2.33;;;1.77;;
9948;SDS011;5013;51.840;8.276;2023-07-13T00:24:07;3.97;;;2.37;;
9948;SDS011;5013;51.840;8.276;2023-07-13T00:26:37;6.63;;;2.60;;
9948;SDS011;5013;51.840;8.276;2023-07-13T00:29:03;5.20;;;2.30;;
9948;SDS011;5013;51.840;8.276;2023-07-13T00:31:31;3.60;;;2.50;;
9948;SDS011;5013;51.840;8.276;2023-07-13T00:33:56;4.90;;;2.33;;
9948;SDS011;5013;51.840;8.276;2023-07-13T00:36:22;5.23;;;2.40;;
9948;SDS011;5013;51.840;8.276;2023-07-13T00:38:47;3.83;;;2.30;;
9948;SDS011;5013;51.840;8.276;2023-07-13T00:41:13;7.03;;;2.83;;
9948;SDS011;5013;51.840;8.276;2023-07-13T00:43:40;6.27;;;2.40;;
9948;SDS011;5013;51.840;8.276;2023-07-13T00:46:09;5.73;;;2.50;;
9948;SDS011;5013;51.840;8.276;2023-07-13T00:48:38;3.43;;;2.50;;
9948;SDS011;5013;51.840;8.276;2023-07-13T00:51:04;5.73;;;2.63;;
9948;SDS011;5013;51.840;8.276;2023-07-13T00:53:30;3.20;;;2.20;;
9948;SDS011;5013;51.840;8.276;2023-07-13T00:55:57;2.43;;;2.10;;
9948;SDS011;5013;51.840;8.276;2023-07-13T00:58:24;6.77;;;2.57;;
9948;SDS011;5013;51.840;8.276;2023-07-13T01:00:51;8.07;;;2.80;;
9948;SDS011;5013;51.840;8.276;2023-07-13T01:03:17;4.33;;;2.40;;
9948;SDS011;5013;51.840;8.276;2023-07-13T01:05:43;6.03;;;2.27;;
9948;SDS011;5013;51.840;8.276;2023-07-13T01:08:12;5.57;;;2.70;;
9948;SDS011;5013;51.840;8.276;2023-07-13T01:10:37;7.83;;;2.43;;
9948;SDS011;5013;51.840;8.276;2023-07-13T01:13:06;6.03;;;2.90;;
9948;SDS011;5013;51.840;8.276;2023-07-13T01:15:34;5.00;;;2.63;;
9948;SDS011;5013;51.840;8.276;2023-07-13T01:18:07;4.73;;;2.43;;
9948;SDS011;5013;51.840;8.276;2023-07-13T01:21:00;4.60;;;2.53;;
9948;SDS011;5013;51.840;8.276;2023-07-13T01:23:28;5.67;;;2.70;;
9948;SDS011;5013;51.840;8.276;2023-07-13T01:25:54;8.07;;;2.83;;
9948;SDS011;5013;51.840;8.276;2023-07-13T01:28:21;11.27;;;3.00;;
9948;SDS011;5013;51.840;8.276;2023-07-13T01:30:47;6.90;;;2.33;;
9948;SDS011;5013;51.840;8.276;2023-07-13T01:33:14;9.17;;;3.07;;
9948;SDS011;5013;51.840;8.276;2023-07-13T01:35:41;10.83;;;3.17;;
9948;SDS011;5013;51.840;8.276;2023-07-13T01:38:08;6.50;;;2.90;;
9948;SDS011;5013;51.840;8.276;2023-07-13T01:40:35;3.70;;;2.40;;
9948;SDS011;5013;51.840;8.276;2023-07-13T01:43:01;8.87;;;3.00;;
9948;SDS011;5013;51.840;8.276;2023-07-13T01:45:27;7.20;;;2.90;;
9948;SDS011;5013;51.840;8.276;2023-07-13T01:47:53;7.93;;;2.60;;
9948;SDS011;5013;51.840;8.276;2023-07-13T01:50:19;7.47;;;3.00;;
9948;SDS011;5013;51.840;8.276;2023-07-13T01:52:44;6.90;;;2.67;;
9948;SDS011;5013;51.840;8.276;2023-07-13T01:55:10;6.87;;;2.63;;
9948;SDS011;5013;51.840;8.276;2023-07-13T01:57:36;4.27;;;2.83;;
9948;SDS011;5013;51.840;8.276;2023-07-13T02:00:05;8.57;;;3.10;;
9948;SDS011;5013;51.840;8.276;2023-07-13T02:02:32;6.17;;;2.90;;
9948;SDS011;5013;51.840;8.276;2023-07-13T02:04:57;5.57;;;2.70;;
9948;SDS011;5013;51.840;8.276;2023-07-13T02:07:23;10.73;;;3.40;;
9948;SDS011;5013;51.840;8.276;2023-07-13T02:09:49;10.13;;;3.63;;
9948;SDS011;5013;51.840;8.276;2023-07-13T02:12:14;8.07;;;2.93;;
9948;SDS011;5013;51.840;8.276;2023-07-13T02:14:40;6.97;;;2.93;;
9948;SDS011;5013;51.840;8.276;2023-07-13T02:17:05;11.03;;;3.50;;
9948;SDS011;5013;51.840;8.276;2023-07-13T02:19:31;9.27;;;3.13;;
9948;SDS011;5013;51.840;8.276;2023-07-13T02:21:57;6.97;;;3.60;;
9948;SDS011;5013;51.840;8.276;2023-07-13T02:24:23;6.33;;;3.33;;
9948;SDS011;5013;51.840;8.276;2023-07-13T02:26:49;8.63;;;3.53;;
9948;SDS011;5013;51.840;8.276;2023-07-13T02:29:14;7.23;;;3.33;;
9948;SDS011;5013;51.840;8.276;2023-07-13T02:31:40;8.03;;;3.27;;
9948;SDS011;5013;51.840;8.276;2023-07-13T02:34:05;4.90;;;3.57;;
9948;SDS011;5013;51.840;8.276;2023-07-13T02:36:31;5.83;;;3.77;;
9948;SDS011;5013;51.840;8.276;2023-07-13T02:39:00;8.27;;;3.30;;
9948;SDS011;5013;51.840;8.276;2023-07-13T02:41:28;8.50;;;3.47;;
9948;SDS011;5013;51.840;8.276;2023-07-13T02:43:54;9.23;;;3.97;;
9948;SDS011;5013;51.840;8.276;2023-07-13T02:46:27;7.03;;;4.43;;
9948;SDS011;5013;51.840;8.276;2023-07-13T02:48:53;9.80;;;4.40;;
9948;SDS011;5013;51.840;8.276;2023-07-13T02:51:19;9.93;;;4.20;;
9948;SDS011;5013;51.840;8.276;2023-07-13T02:53:45;8.47;;;3.57;;
9948;SDS011;5013;51.840;8.276;2023-07-13T02:56:10;8.30;;;3.97;;
9948;SDS011;5013;51.840;8.276;2023-07-13T02:58:36;6.63;;;3.80;;
9948;SDS011;5013;51.840;8.276;2023-07-13T03:01:06;9.10;;;4.73;;
9948;SDS011;5013;51.840;8.276;2023-07-13T03:03:32;5.00;;;4.60;;
9948;SDS011;5013;51.840;8.276;2023-07-13T03:05:59;9.40;;;4.20;;
9948;SDS011;5013;51.840;8.276;2023-07-13T03:08:27;9.90;;;4.57;;
9948;SDS011;5013;51.840;8.276;2023-07-13T03:11:00;6.17;;;3.60;;
9948;SDS011;5013;51.840;8.276;2023-07-13T03:13:27;8.10;;;4.37;;
9948;SDS011;5013;51.840;8.276;2023-07-13T03:15:52;8.27;;;4.13;;
9948;SDS011;5013;51.840;8.276;2023-07-13T03:18:18;10.60;;;4.10;;
9948;SDS011;5013;51.840;8.276;2023-07-13T03:20:43;8.10;;;3.93;;
9948;SDS011;5013;51.840;8.276;2023-07-13T03:23:09;6.90;;;4.00;;
9948;SDS011;5013;51.840;8.276;2023-07-13T03:25:34;8.60;;;3.83;;
9948;SDS011;5013;51.840;8.276;2023-07-13T03:28:00;7.90;;;3.27;;
9948;SDS011;5013;51.840;8.276;2023-07-13T03:30:25;12.10;;;3.50;;
9948;SDS011;5013;51.840;8.276;2023-07-13T03:32:51;6.73;;;3.23;;
9948;SDS011;5013;51.840;8.276;2023-07-13T03:35:17;6.23;;;3.10;;
9948;SDS011;5013;51.840;8.276;2023-07-13T03:37:42;7.33;;;3.23;;
9948;SDS011;5013;51.840;8.276;2023-07-13T03:40:08;4.50;;;2.73;;
9948;SDS011;5013;51.840;8.276;2023-07-13T03:42:35;10.43;;;3.00;;
9948;SDS011;5013;51.840;8.276;2023-07-13T03:45:00;9.47;;;3.40;;
9948;SDS011;5013;51.840;8.276;2023-07-13T03:47:26;6.87;;;2.70;;
9948;SDS011;5013;51.840;8.276;2023-07-13T03:49:51;10.63;;;2.83;;
9948;SDS011;5013;51.840;8.276;2023-07-13T03:52:18;8.07;;;2.70;;
9948;SDS011;5013;51.840;8.276;2023-07-13T03:54:44;7.00;;;2.57;;
9948;SDS011;5013;51.840;8.276;2023-07-13T03:57:09;6.93;;;2.40;;
9948;SDS011;5013;51.840;8.276;2023-07-13T03:59:35;9.07;;;2.57;;
9948;SDS011;5013;51.840;8.276;2023-07-13T04:02:01;3.80;;;2.30;;
9948;SDS011;5013;51.840;8.276;2023-07-13T04:04:26;7.90;;;2.20;;
9948;SDS011;5013;51.840;8.276;2023-07-13T04:06:52;7.27;;;2.20;;
9948;SDS011;5013;51.840;8.276;2023-07-13T04:09:18;5.03;;;2.37;;
9948;SDS011;5013;51.840;8.276;2023-07-13T04:11:44;6.27;;;2.30;;
9948;SDS011;5013;51.840;8.276;2023-07-13T04:14:10;4.87;;;2.20;;
9948;SDS011;5013;51.840;8.276;2023-07-13T04:16:35;5.93;;;2.50;;
9948;SDS011;5013;51.840;8.276;2023-07-13T04:19:01;7.83;;;2.50;;
9948;SDS011;5013;51.840;8.276;2023-07-13T04:21:27;6.43;;;2.73;;
9948;SDS011;5013;51.840;8.276;2023-07-13T04:23:54;10.93;;;2.53;;
9948;SDS011;5013;51.840;8.276;2023-07-13T04:26:20;8.47;;;2.70;;
9948;SDS011;5013;51.840;8.276;2023-07-13T04:28:46;6.07;;;2.50;;
9948;SDS011;5013;51.840;8.276;2023-07-13T04:31:12;4.40;;;2.20;;
9948;SDS011;5013;51.840;8.276;2023-07-13T04:33:38;5.83;;;2.23;;
9948;SDS011;5013;51.840;8.276;2023-07-13T04:36:04;7.20;;;2.13;;
9948;SDS011;5013;51.840;8.276;2023-07-13T04:38:31;6.33;;;2.33;;
9948;SDS011;5013;51.840;8.276;2023-07-13T04:41:03;4.73;;;2.30;;
9948;SDS011;5013;51.840;8.276;2023-07-13T04:43:30;4.37;;;2.20;;
9948;SDS011;5013;51.840;8.276;2023-07-13T04:45:57;9.17;;;2.17;;
9948;SDS011;5013;51.840;8.276;2023-07-13T04:48:28;4.87;;;2.10;;
9948;SDS011;5013;51.840;8.276;2023-07-13T04:50:54;6.23;;;1.97;;
9948;SDS011;5013;51.840;8.276;2023-07-13T04:53:21;5.87;;;2.37;;
9948;SDS011;5013;51.840;8.276;2023-07-13T04:55:48;7.43;;;2.50;;
9948;SDS011;5013;51.840;8.276;2023-07-13T04:58:13;5.93;;;2.20;;
9948;SDS011;5013;51.840;8.276;2023-07-13T05:00:39;6.17;;;2.13;;
9948;SDS011;5013;51.840;8.276;2023-07-13T05:03:04;5.67;;;2.27;;
9948;SDS011;5013;51.840;8.276;2023-07-13T05:05:30;7.10;;;2.57;;
9948;SDS011;5013;51.840;8.276;2023-07-13T05:07:56;6.73;;;2.03;;
9948;SDS011;5013;51.840;8.276;2023-07-13T05:10:22;6.03;;;1.87;;
9948;SDS011;5013;51.840;8.276;2023-07-13T05:12:49;6.03;;;1.97;;
9948;SDS011;5013;51.840;8.276;2023-07-13T05:15:15;4.80;;;2.30;;
9948;SDS011;5013;51.840;8.276;2023-07-13T05:17:45;6.80;;;2.20;;
9948;SDS011;5013;51.840;8.276;2023-07-13T05:20:11;6.73;;;2.10;;
9948;SDS011;5013;51.840;8.276;2023-07-13T05:22:37;7.53;;;2.60;;
9948;SDS011;5013;51.840;8.276;2023-07-13T05:25:06;9.67;;;2.20;;
9948;SDS011;5013;51.840;8.276;2023-07-13T05:27:32;6.13;;;1.83;;
9948;SDS011;5013;51.840;8.276;2023-07-13T05:29:58;4.00;;;1.90;;
9948;SDS011;5013;51.840;8.276;2023-07-13T05:32:24;4.63;;;1.90;;
9948;SDS011;5013;51.840;8.276;2023-07-13T05:34:49;6.50;;;2.30;;
9948;SDS011;5013;51.840;8.276;2023-07-13T05:37:15;4.93;;;2.23;;
9948;SDS011;5013;51.840;8.276;2023-07-13T05:39:40;7.93;;;2.57;;
9948;SDS011;5013;51.840;8.276;2023-07-13T05:42:06;8.67;;;2.40;;
9948;SDS011;5013;51.840;8.276;2023-07-13T05:44:32;4.03;;;2.37;;
9948;SDS011;5013;51.840;8.276;2023-07-13T05:46:58;4.07;;;2.20;;
9948;SDS011;5013;51.840;8.276;2023-07-13T05:49:23;7.13;;;2.70;;
9948;SDS011;5013;51.840;8.276;2023-07-13T05:51:49;4.23;;;2.23;;
9948;SDS011;5013;51.840;8.276;2023-07-13T05:54:15;7.80;;;2.40;;
9948;SDS011;5013;51.840;8.276;2023-07-13T05:56:40;4.43;;;2.33;;
9948;SDS011;5013;51.840;8.276;2023-07-13T05:59:06;5.23;;;2.20;;
9948;SDS011;5013;51.840;8.276;2023-07-13T06:01:31;9.10;;;2.90;;
9948;SDS011;5013;51.840;8.276;2023-07-13T06:03:57;8.30;;;2.30;;
9948;SDS011;5013;51.840;8.276;2023-07-13T06:06:23;6.37;;;2.50;;
9948;SDS011;5013;51.840;8.276;2023-07-13T06:08:48;6.60;;;2.77;;
9948;SDS011;5013;51.840;8.276;2023-07-13T06:11:16;6.83;;;2.20;;
9948;SDS011;5013;51.840;8.276;2023-07-13T06:13:46;5.93;;;2.60;;
9948;SDS011;5013;51.840;8.276;2023-07-13T06:16:12;8.27;;;2.57;;
9948;SDS011;5013;51.840;8.276;2023-07-13T06:18:38;8.27;;;2.73;;
9948;SDS011;5013;51.840;8.276;2023-07-13T06:21:15;7.73;;;2.57;;
9948;SDS011;5013;51.840;8.276;2023-07-13T06:23:42;9.60;;;2.70;;
9948;SDS011;5013;51.840;8.276;2023-07-13T06:26:08;8.67;;;2.57;;
9948;SDS011;5013;51.840;8.276;2023-07-13T06:28:34;10.90;;;3.43;;
9948;SDS011;5013;51.840;8.276;2023-07-13T06:31:00;7.50;;;2.50;;
9948;SDS011;5013;51.840;8.276;2023-07-13T06:33:26;11.57;;;3.00;;
9948;SDS011;5013;51.840;8.276;2023-07-13T06:35:52;12.40;;;3.20;;
9948;SDS011;5013;51.840;8.276;2023-07-13T06:38:19;11.73;;;3.07;;
9948;SDS011;5013;51.840;8.276;2023-07-13T06:40:45;10.27;;;3.47;;
9948;SDS011;5013;51.840;8.276;2023-07-13T06:43:11;11.47;;;3.00;;
9948;SDS011;5013;51.840;8.276;2023-07-13T06:45:41;13.00;;;3.67;;
9948;SDS011;5013;51.840;8.276;2023-07-13T06:48:10;10.77;;;3.13;;
9948;SDS011;5013;51.840;8.276;2023-07-13T06:50:36;12.63;;;3.37;;
9948;SDS011;5013;51.840;8.276;2023-07-13T06:53:02;7.33;;;3.30;;
9948;SDS011;5013;51.840;8.276;2023-07-13T06:55:28;10.70;;;3.07;;
9948;SDS011;5013;51.840;8.276;2023-07-13T06:57:53;11.80;;;3.20;;
9948;SDS011;5013;51.840;8.276;2023-07-13T07:00:19;9.10;;;3.10;;
9948;SDS011;5013;51.840;8.276;2023-07-13T07:02:44;7.20;;;3.00;;
9948;SDS011;5013;51.840;8.276;2023-07-13T07:05:10;10.60;;;3.17;;
9948;SDS011;5013;51.840;8.276;2023-07-13T07:07:36;6.53;;;2.70;;
9948;SDS011;5013;51.840;8.276;2023-07-13T07:10:01;13.10;;;3.63;;
9948;SDS011;5013;51.840;8.276;2023-07-13T07:12:28;8.33;;;2.80;;
9948;SDS011;5013;51.840;8.276;2023-07-13T07:14:54;11.10;;;3.30;;
9948;SDS011;5013;51.840;8.276;2023-07-13T07:17:19;9.20;;;3.20;;
9948;SDS011;5013;51.840;8.276;2023-07-13T07:19:45;6.23;;;3.07;;
9948;SDS011;5013;51.840;8.276;2023-07-13T07:22:11;10.07;;;3.03;;
9948;SDS011;5013;51.840;8.276;2023-07-13T07:24:36;7.77;;;2.90;;
9948;SDS011;5013;51.840;8.276;2023-07-13T07:27:02;8.57;;;3.00;;
9948;SDS011;5013;51.840;8.276;2023-07-13T07:29:28;10.73;;;3.13;;
9948;SDS011;5013;51.840;8.276;2023-07-13T07:31:53;7.20;;;3.23;;
9948;SDS011;5013;51.840;8.276;2023-07-13T07:34:19;7.83;;;3.17;;
9948;SDS011;5013;51.840;8.276;2023-07-13T07:36:45;10.07;;;3.40;;
9948;SDS011;5013;51.840;8.276;2023-07-13T07:39:10;7.90;;;3.27;;
9948;SDS011;5013;51.840;8.276;2023-07-13T07:41:36;10.20;;;3.03;;
9948;SDS011;5013;51.840;8.276;2023-07-13T07:44:02;6.37;;;3.50;;
9948;SDS011;5013;51.840;8.276;2023-07-13T07:46:28;12.33;;;3.60;;
9948;SDS011;5013;51.840;8.276;2023-07-13T07:48:54;11.40;;;3.47;;
9948;SDS011;5013;51.840;8.276;2023-07-13T07:51:20;16.90;;;4.00;;
9948;SDS011;5013;51.840;8.276;2023-07-13T07:53:47;7.27;;;3.10;;
9948;SDS011;5013;51.840;8.276;2023-07-13T07:56:13;11.47;;;3.60;;
9948;SDS011;5013;51.840;8.276;2023-07-13T07:58:41;6.50;;;3.00;;
9948;SDS011;5013;51.840;8.276;2023-07-13T08:01:07;8.23;;;3.10;;
9948;SDS011;5013;51.840;8.276;2023-07-13T08:03:33;8.70;;;3.20;;
9948;SDS011;5013;51.840;8.276;2023-07-13T08:05:59;7.93;;;3.23;;
9948;SDS011;5013;51.840;8.276;2023-07-13T08:08:26;9.93;;;3.10;;
9948;SDS011;5013;51.840;8.276;2023-07-13T08:10:52;9.50;;;3.30;;
9948;SDS011;5013;51.840;8.276;2023-07-13T08:13:18;13.23;;;4.20;;
9948;SDS011;5013;51.840;8.276;2023-07-13T08:15:44;12.50;;;3.50;;
9948;SDS011;5013;51.840;8.276;2023-07-13T08:18:11;6.63;;;3.20;;
9948;SDS011;5013;51.840;8.276;2023-07-13T08:20:37;11.23;;;3.03;;
9948;SDS011;5013;51.840;8.276;2023-07-13T08:23:04;12.23;;;3.50;;
9948;SDS011;5013;51.840;8.276;2023-07-13T08:25:29;11.93;;;3.03;;
9948;SDS011;5013;51.840;8.276;2023-07-13T08:27:55;9.67;;;3.00;;
9948;SDS011;5013;51.840;8.276;2023-07-13T08:30:20;10.90;;;3.80;;
9948;SDS011;5013;51.840;8.276;2023-07-13T08:32:46;13.43;;;3.13;;
9948;SDS011;5013;51.840;8.276;2023-07-13T08:35:11;6.50;;;2.80;;
9948;SDS011;5013;51.840;8.276;2023-07-13T08:37:38;5.50;;;2.83;;
9948;SDS011;5013;51.840;8.276;2023-07-13T08:40:04;10.83;;;3.43;;
9948;SDS011;5013;51.840;8.276;2023-07-13T08:42:36;10.07;;;3.30;;
9948;SDS011;5013;51.840;8.276;2023-07-13T08:45:20;5.03;;;2.47;;
9948;SDS011;5013;51.840;8.276;2023-07-13T08:47:52;9.97;;;3.07;;
9948;SDS011;5013;51.840;8.276;2023-07-13T08:50:23;8.37;;;3.20;;
9948;SDS011;5013;51.840;8.276;2023-07-13T08:52:52;10.57;;;3.00;;
9948;SDS011;5013;51.840;8.276;2023-07-13T08:55:29;7.07;;;3.10;;
9948;SDS011;5013;51.840;8.276;2023-07-13T08:58:03;8.50;;;3.30;;
9948;SDS011;5013;51.840;8.276;2023-07-13T09:00:38;7.73;;;2.70;;
9948;SDS011;5013;51.840;8.276;2023-07-13T09:03:06;12.00;;;4.00;;
9948;SDS011;5013;51.840;8.276;2023-07-13T09:05:45;11.97;;;3.23;;
9948;SDS011;5013;51.840;8.276;2023-07-13T09:11:19;8.60;;;3.13;;
9948;SDS011;5013;51.840;8.276;2023-07-13T09:14:11;6.93;;;3.17;;
9948;SDS011;5013;51.840;8.276;2023-07-13T09:17:00;5.53;;;3.30;;
9948;SDS011;5013;51.840;8.276;2023-07-13T09:19:38;3.53;;;2.57;;
9948;SDS011;5013;51.840;8.276;2023-07-13T09:22:06;7.13;;;3.43;;
9948;SDS011;5013;51.840;8.276;2023-07-13T09:24:41;7.50;;;3.27;;
9948;SDS011;5013;51.840;8.276;2023-07-13T09:27:23;7.03;;;3.43;;
9948;SDS011;5013;51.840;8.276;2023-07-13T09:30:09;9.10;;;3.30;;
9948;SDS011;5013;51.840;8.276;2023-07-13T09:32:45;6.03;;;3.50;;
9948;SDS011;5013;51.840;8.276;2023-07-13T09:35:16;7.60;;;3.20;;
9948;SDS011;5013;51.840;8.276;2023-07-13T09:37:46;6.93;;;3.60;;
9948;SDS011;5013;51.840;8.276;2023-07-13T09:40:23;7.07;;;3.00;;
9948;SDS011;5013;51.840;8.276;2023-07-13T09:42:55;10.07;;;3.63;;
9948;SDS011;5013;51.840;8.276;2023-07-13T09:45:27;5.00;;;3.20;;
9948;SDS011;5013;51.840;8.276;2023-07-13T09:47:58;5.23;;;3.30;;
9948;SDS011;5013;51.840;8.276;2023-07-13T09:50:28;6.20;;;3.23;;
9948;SDS011;5013;51.840;8.276;2023-07-13T09:52:54;7.43;;;3.83;;
9948;SDS011;5013;51.840;8.276;2023-07-13T09:55:31;5.60;;;3.17;;
9948;SDS011;5013;51.840;8.276;2023-07-13T10:00:43;8.55;;;3.20;;
9948;SDS011;5013;51.840;8.276;2023-07-13T10:03:26;4.25;;;3.30;;
9948;SDS011;5013;51.840;8.276;2023-07-13T10:05:55;4.03;;;2.78;;
9948;SDS011;5013;51.840;8.276;2023-07-13T10:08:35;7.80;;;3.27;;
9948;SDS011;5013;51.840;8.276;2023-07-13T10:11:12;7.60;;;3.25;;
9948;SDS011;5013;51.840;8.276;2023-07-13T10:16:22;7.20;;;2.75;;
9948;SDS011;5013;51.840;8.276;2023-07-13T10:18:51;6.63;;;2.72;;
9948;SDS011;5013;51.840;8.276;2023-07-13T10:21:21;3.90;;;2.40;;
9948;SDS011;5013;51.840;8.276;2023-07-13T10:24:02;7.13;;;2.50;;
9948;SDS011;5013;51.840;8.276;2023-07-13T10:26:45;5.82;;;2.40;;
9948;SDS011;5013;51.840;8.276;2023-07-13T10:29:17;8.27;;;2.72;;
9948;SDS011;5013;51.840;8.276;2023-07-13T10:31:45;7.05;;;3.10;;
9948;SDS011;5013;51.840;8.276;2023-07-13T10:34:11;8.25;;;2.80;;
9948;SDS011;5013;51.840;8.276;2023-07-13T10:36:40;5.32;;;2.58;;
9948;SDS011;5013;51.840;8.276;2023-07-13T10:39:09;5.85;;;2.78;;
9948;SDS011;5013;51.840;8.276;2023-07-13T10:41:44;3.70;;;2.33;;
9948;SDS011;5013;51.840;8.276;2023-07-13T10:44:18;5.05;;;2.50;;
9948;SDS011;5013;51.840;8.276;2023-07-13T10:46:54;4.43;;;2.20;;
9948;SDS011;5013;51.840;8.276;2023-07-13T10:49:23;7.93;;;2.50;;
9948;SDS011;5013;51.840;8.276;2023-07-13T10:51:51;4.05;;;2.40;;
9948;SDS011;5013;51.840;8.276;2023-07-13T10:54:21;8.68;;;2.53;;
9948;SDS011;5013;51.840;8.276;2023-07-13T10:57:06;5.30;;;2.38;;
9948;SDS011;5013;51.840;8.276;2023-07-13T10:59:35;5.45;;;2.22;;
9948;SDS011;5013;51.840;8.276;2023-07-13T11:04:27;5.80;;;2.70;;
9948;SDS011;5013;51.840;8.276;2023-07-13T11:06:58;4.55;;;2.30;;
9948;SDS011;5013;51.840;8.276;2023-07-13T11:09:37;4.70;;;2.80;;
9948;SDS011;5013;51.840;8.276;2023-07-13T11:12:10;6.03;;;2.55;;
9948;SDS011;5013;51.840;8.276;2023-07-13T11:14:43;5.85;;;2.47;;
9948;SDS011;5013;51.840;8.276;2023-07-13T11:17:32;3.83;;;2.60;;
9948;SDS011;5013;51.840;8.276;2023-07-13T11:36:21;5.78;;;2.80;;
9948;SDS011;5013;51.840;8.276;2023-07-13T11:38:35;4.80;;;2.22;;
9948;SDS011;5013;51.840;8.276;2023-07-13T11:41:07;4.47;;;2.65;;
9948;SDS011;5013;51.840;8.276;2023-07-13T11:43:40;6.93;;;3.10;;
9948;SDS011;5013;51.840;8.276;2023-07-13T11:46:14;6.80;;;2.78;;
9948;SDS011;5013;51.840;8.276;2023-07-13T11:48:45;5.75;;;2.60;;
9948;SDS011;5013;51.840;8.276;2023-07-13T11:51:15;5.25;;;2.25;;
9948;SDS011;5013;51.840;8.276;2023-07-13T11:53:48;6.43;;;2.97;;
9948;SDS011;5013;51.840;8.276;2023-07-13T11:56:15;5.35;;;2.75;;
9948;SDS011;5013;51.840;8.276;2023-07-13T11:58:41;4.75;;;2.97;;
9948;SDS011;5013;51.840;8.276;2023-07-13T12:01:10;5.63;;;3.03;;
9948;SDS011;5013;51.840;8.276;2023-07-13T12:03:48;8.52;;;3.08;;
9948;SDS011;5013;51.840;8.276;2023-07-13T12:06:47;4.35;;;2.67;;
9948;SDS011;5013;51.840;8.276;2023-07-13T12:09:11;3.00;;;2.70;;
9948;SDS011;5013;51.840;8.276;2023-07-13T12:11:40;8.23;;;3.30;;
9948;SDS011;5013;51.840;8.276;2023-07-13T12:14:12;9.40;;;3.58;;
9948;SDS011;5013;51.840;8.276;2023-07-13T12:16:40;10.05;;;3.60;;
9948;SDS011;5013;51.840;8.276;2023-07-13T12:19:09;7.50;;;3.47;;
9948;SDS011;5013;51.840;8.276;2023-07-13T12:21:43;8.30;;;3.53;;
9948;SDS011;5013;51.840;8.276;2023-07-13T12:24:19;3.95;;;3.33;;
9948;SDS011;5013;51.840;8.276;2023-07-13T12:27:00;6.63;;;3.35;;
9948;SDS011;5013;51.840;8.276;2023-07-13T12:29:32;6.82;;;4.13;;
9948;SDS011;5013;51.840;8.276;2023-07-13T12:31:58;7.25;;;3.70;;
9948;SDS011;5013;51.840;8.276;2023-07-13T12:34:24;6.40;;;3.60;;
9948;SDS011;5013;51.840;8.276;2023-07-13T12:39:46;6.78;;;3.30;;
9948;SDS011;5013;51.840;8.276;2023-07-13T12:42:23;5.93;;;3.30;;
9948;SDS011;5013;51.840;8.276;2023-07-13T12:44:52;3.08;;;2.78;;
9948;SDS011;5013;51.840;8.276;2023-07-13T12:47:21;8.32;;;2.90;;
9948;SDS011;5013;51.840;8.276;2023-07-13T12:49:50;3.20;;;2.90;;
9948;SDS011;5013;51.840;8.276;2023-07-13T12:52:22;3.47;;;2.55;;
9948;SDS011;5013;51.840;8.276;2023-07-13T12:54:54;6.30;;;2.60;;
9948;SDS011;5013;51.840;8.276;2023-07-13T12:57:25;2.85;;;2.53;;
9948;SDS011;5013;51.840;8.276;2023-07-13T12:59:52;3.40;;;2.60;;
9948;SDS011;5013;51.840;8.276;2023-07-13T13:04:57;5.03;;;2.60;;
9948;SDS011;5013;51.840;8.276;2023-07-13T13:07:23;2.75;;;2.40;;
9948;SDS011;5013;51.840;8.276;2023-07-13T13:09:50;7.70;;;3.45;;
9948;SDS011;5013;51.840;8.276;2023-07-13T13:12:18;5.60;;;2.78;;
9948;SDS011;5013;51.840;8.276;2023-07-13T13:14:44;5.80;;;2.78;;
9948;SDS011;5013;51.840;8.276;2023-07-13T13:17:21;3.63;;;2.25;;
9948;SDS011;5013;51.840;8.276;2023-07-13T13:19:55;6.85;;;2.63;;
9948;SDS011;5013;51.840;8.276;2023-07-13T13:22:22;12.32;;;2.88;;
9948;SDS011;5013;51.840;8.276;2023-07-13T13:24:47;5.32;;;3.03;;
9948;SDS011;5013;51.840;8.276;2023-07-13T13:27:17;8.98;;;2.60;;
9948;SDS011;5013;51.840;8.276;2023-07-13T13:29:44;3.63;;;2.47;;
9948;SDS011;5013;51.840;8.276;2023-07-13T13:32:14;3.58;;;2.70;;
9948;SDS011;5013;51.840;8.276;2023-07-13T13:34:40;3.13;;;2.42;;
9948;SDS011;5013;51.840;8.276;2023-07-13T13:37:15;6.60;;;2.80;;
9948;SDS011;5013;51.840;8.276;2023-07-13T13:39:46;3.28;;;2.60;;
9948;SDS011;5013;51.840;8.276;2023-07-13T13:42:12;4.30;;;3.15;;
9948;SDS011;5013;51.840;8.276;2023-07-13T13:44:38;10.35;;;2.95;;
9948;SDS011;5013;51.840;8.276;2023-07-13T13:47:07;4.75;;;3.03;;
9948;SDS011;5013;51.840;8.276;2023-07-13T13:49:52;5.30;;;3.30;;
9948;SDS011;5013;51.840;8.276;2023-07-13T13:52:18;5.32;;;3.13;;
9948;SDS011;5013;51.840;8.276;2023-07-13T13:54:43;5.78;;;2.88;;
9948;SDS011;5013;51.840;8.276;2023-07-13T13:57:09;6.03;;;3.15;;
9948;SDS011;5013;51.840;8.276;2023-07-13T13:59:37;5.72;;;3.13;;
9948;SDS011;5013;51.840;8.276;2023-07-13T14:02:10;14.05;;;4.35;;
9948;SDS011;5013;51.840;8.276;2023-07-13T14:04:47;8.85;;;2.85;;
9948;SDS011;5013;51.840;8.276;2023-07-13T14:07:16;7.10;;;3.20;;
9948;SDS011;5013;51.840;8.276;2023-07-13T14:09:42;5.73;;;2.77;;
9948;SDS011;5013;51.840;8.276;2023-07-13T14:12:08;7.53;;;3.00;;
9948;SDS011;5013;51.840;8.276;2023-07-13T14:14:37;4.97;;;3.30;;
9948;SDS011;5013;51.840;8.276;2023-07-13T14:17:04;3.73;;;3.00;;
9948;SDS011;5013;51.840;8.276;2023-07-13T14:19:29;9.30;;;3.27;;
9948;SDS011;5013;51.840;8.276;2023-07-13T14:21:55;7.43;;;2.93;;
9948;SDS011;5013;51.840;8.276;2023-07-13T14:24:21;4.27;;;2.93;;
9948;SDS011;5013;51.840;8.276;2023-07-13T14:26:46;6.47;;;2.93;;
9948;SDS011;5013;51.840;8.276;2023-07-13T14:29:13;5.57;;;3.30;;
9948;SDS011;5013;51.840;8.276;2023-07-13T14:31:41;4.27;;;3.13;;
9948;SDS011;5013;51.840;8.276;2023-07-13T14:34:07;5.80;;;3.73;;
9948;SDS011;5013;51.840;8.276;2023-07-13T14:36:38;8.33;;;3.13;;
9948;SDS011;5013;51.840;8.276;2023-07-13T14:39:16;6.03;;;3.13;;
9948;SDS011;5013;51.840;8.276;2023-07-13T14:41:44;5.50;;;2.40;;
9948;SDS011;5013;51.840;8.276;2023-07-13T14:44:14;4.83;;;2.60;;
9948;SDS011;5013;51.840;8.276;2023-07-13T14:46:41;7.10;;;2.93;;
9948;SDS011;5013;51.840;8.276;2023-07-13T14:52:00;4.93;;;3.77;;
9948;SDS011;5013;51.840;8.276;2023-07-13T14:54:28;7.77;;;4.07;;
9948;SDS011;5013;51.840;8.276;2023-07-13T14:56:54;7.63;;;4.97;;
9948;SDS011;5013;51.840;8.276;2023-07-13T14:59:20;7.43;;;4.40;;
9948;SDS011;5013;51.840;8.276;2023-07-13T15:01:46;4.57;;;4.07;;
9948;SDS011;5013;51.840;8.276;2023-07-13T15:04:13;4.67;;;4.10;;
9948;SDS011;5013;51.840;8.276;2023-07-13T15:06:56;4.20;;;3.80;;
9948;SDS011;5013;51.840;8.276;2023-07-13T15:09:24;3.90;;;3.23;;
9948;SDS011;5013;51.840;8.276;2023-07-13T15:11:57;3.97;;;3.20;;
9948;SDS011;5013;51.840;8.276;2023-07-13T15:14:24;3.47;;;3.17;;
9948;SDS011;5013;51.840;8.276;2023-07-13T15:16:51;4.43;;;3.33;;
9948;SDS011;5013;51.840;8.276;2023-07-13T15:19:19;3.40;;;3.10;;
9948;SDS011;5013;51.840;8.276;2023-07-13T15:21:46;5.03;;;3.40;;
9948;SDS011;5013;51.840;8.276;2023-07-13T15:24:12;5.77;;;3.60;;
9948;SDS011;5013;51.840;8.276;2023-07-13T15:26:38;4.63;;;3.47;;
9948;SDS011;5013;51.840;8.276;2023-07-13T15:29:05;4.23;;;3.20;;
9948;SDS011;5013;51.840;8.276;2023-07-13T15:31:31;3.30;;;3.10;;
9948;SDS011;5013;51.840;8.276;2023-07-13T15:33:58;6.50;;;3.43;;
9948;SDS011;5013;51.840;8.276;2023-07-13T15:36:25;3.27;;;2.90;;
9948;SDS011;5013;51.840;8.276;2023-07-13T15:38:52;7.23;;;2.80;;
9948;SDS011;5013;51.840;8.276;2023-07-13T15:41:20;3.07;;;2.77;;
9948;SDS011;5013;51.840;8.276;2023-07-13T15:43:51;2.67;;;2.50;;
9948;SDS011;5013;51.840;8.276;2023-07-13T15:46:19;2.83;;;2.73;;
9948;SDS011;5013;51.840;8.276;2023-07-13T15:48:49;3.20;;;3.00;;
9948;SDS011;5013;51.840;8.276;2023-07-13T15:53:49;6.47;;;4.30;;
9948;SDS011;5013;51.840;8.276;2023-07-13T15:56:20;4.73;;;4.33;;
9948;SDS011;5013;51.840;8.276;2023-07-13T15:58:48;5.17;;;3.13;;